Time;durP1;ratioP1;P1;durP2;ratioP2;P2;SDS_P1;SDS_P2;PMS_P1;PMS_P2;Temp;Humidity;BMP_temperature;BMP_pressure;BME280_temperature;BME280_humidity;BME280_pressure;Samples;Min_cycle;Max_cycle;Signal;HPM_P1;HPM_P2
2024/02/26 00:02:49;;;;;;;8.32;3.63;;;;;;;;;;4996542;28;20050;-68
2024/02/26 00:05:38;;;;;;;7.72;4.10;;;;;;;;;;4995312;28;20995;-68
2024/02/26 00:08:30;;;;;;;9.52;4.28;;;;;;;;;;4995371;28;20054;-67
2024/02/26 00:11:17;;;;;;;7.53;4.50;;;;;;;;;;4991253;28;20061;-68
2024/02/26 00:14:10;;;;;;;9.07;4.80;;;;;;;;;;4998218;28;20058;-61
2024/02/26 00:17:11;;;;;;;9.43;5.18;;;;;;;;;;4989311;28;20434;-56
2024/02/26 00:19:45;;;;;;;7.72;4.93;;;;;;;;;;4996630;28;20092;-55
2024/02/26 00:22:19;;;;;;;8.35;4.97;;;;;;;;;;4998243;28;20403;-56
2024/02/26 00:24:46;;;;;;;8.25;4.47;;;;;;;;;;4995731;28;20061;-60
2024/02/26 00:27:13;;;;;;;6.93;4.07;;;;;;;;;;4996828;28;20062;-56
2024/02/26 00:29:47;;;;;;;6.28;3.90;;;;;;;;;;4997607;28;20050;-64
2024/02/26 00:32:20;;;;;;;9.68;4.90;;;;;;;;;;4997877;28;20057;-63
2024/02/26 00:34:55;;;;;;;10.73;4.93;;;;;;;;;;4996895;28;20072;-64
2024/02/26 00:37:22;;;;;;;;;;;;;;;;;;4998123;28;20501;-64
2024/02/26 00:39:49;;;;;;;8.70;5.10;;;;;;;;;;4995960;28;19980;-65
2024/02/26 00:42:24;;;;;;;9.57;5.25;;;;;;;;;;4993053;28;20069;-55
2024/02/26 00:44:51;;;;;;;11.40;5.15;;;;;;;;;;4998167;28;20494;-61
2024/02/26 00:47:26;;;;;;;8.70;5.50;;;;;;;;;;4993889;28;20057;-59
2024/02/26 00:49:53;;;;;;;8.40;5.40;;;;;;;;;;4997346;28;20077;-59
2024/02/26 00:52:20;;;;;;;10.93;6.25;;;;;;;;;;4997517;28;20062;-61
2024/02/26 00:54:53;;;;;;;8.40;5.82;;;;;;;;;;4998567;28;20058;-62
2024/02/26 00:57:41;;;;;;;15.27;7.93;;;;;;;;;;4993514;28;20649;-60
2024/02/26 01:00:36;;;;;;;13.10;7.30;;;;;;;;;;4995530;28;20517;-61
2024/02/26 01:03:29;;;;;;;17.65;8.35;;;;;;;;;;4992479;28;20050;-60
2024/02/26 01:06:18;;;;;;;13.63;7.00;;;;;;;;;;4994163;28;20046;-60
2024/02/26 01:09:11;;;;;;;14.40;7.47;;;;;;;;;;4995589;28;20089;-58
2024/02/26 01:12:05;;;;;;;13.07;8.15;;;;;;;;;;4995976;28;20052;-59
2024/02/26 01:14:59;;;;;;;14.93;8.73;;;;;;;;;;4994180;28;20097;-60
2024/02/26 01:17:52;;;;;;;16.35;9.20;;;;;;;;;;4990804;28;20156;-61
2024/02/26 01:20:47;;;;;;;17.73;8.98;;;;;;;;;;4985906;28;20111;-62
2024/02/26 01:23:35;;;;;;;19.23;8.75;;;;;;;;;;4993574;28;20053;-61
2024/02/26 01:26:28;;;;;;;16.77;8.98;;;;;;;;;;4994208;28;20054;-62
2024/02/26 01:29:16;;;;;;;17.45;8.43;;;;;;;;;;4991553;28;20050;-61
2024/02/26 01:32:10;;;;;;;18.83;8.85;;;;;;;;;;4982166;28;20054;-63
2024/02/26 01:34:57;;;;;;;15.90;8.60;;;;;;;;;;4991221;28;20054;-63
2024/02/26 01:37:50;;;;;;;14.82;8.63;;;;;;;;;;4994213;28;20477;-64
2024/02/26 01:40:38;;;;;;;13.65;8.35;;;;;;;;;;4996085;28;20054;-66
2024/02/26 01:43:32;;;;;;;11.18;7.57;;;;;;;;;;4998436;28;20049;-66
2024/02/26 01:46:19;;;;;;;29.85;10.02;;;;;;;;;;4992263;28;20053;-66
2024/02/26 01:49:13;;;;;;;25.65;10.60;;;;;;;;;;4986839;28;20058;-66
2024/02/26 01:52:00;;;;;;;21.83;10.48;;;;;;;;;;4994815;28;20137;-66
2024/02/26 01:54:55;;;;;;;42.35;12.75;;;;;;;;;;4994056;28;20053;-67
2024/02/26 01:57:43;;;;;;;19.70;10.57;;;;;;;;;;4990754;28;20068;-65
2024/02/26 02:00:37;;;;;;;21.35;11.02;;;;;;;;;;4991273;28;20548;-66
2024/02/26 02:03:25;;;;;;;23.33;9.93;;;;;;;;;;4992513;28;20084;-66
2024/02/26 02:06:19;;;;;;;18.42;10.00;;;;;;;;;;4982670;28;20060;-67
2024/02/26 02:09:07;;;;;;;14.50;9.63;;;;;;;;;;4994155;28;20062;-66
2024/02/26 02:12:01;;;;;;;19.45;10.73;;;;;;;;;;4994212;28;20510;-67
2024/02/26 02:14:48;;;;;;;15.57;9.00;;;;;;;;;;4992299;28;20577;-61
2024/02/26 02:17:48;;;;;;;15.88;9.70;;;;;;;;;;4989542;28;20172;-58
2024/02/26 02:20:36;;;;;;;15.45;8.10;;;;;;;;;;4996001;28;20058;-60
2024/02/26 02:23:29;;;;;;;14.07;8.73;;;;;;;;;;4996470;28;20053;-64
2024/02/26 02:26:17;;;;;;;18.23;9.32;;;;;;;;;;4992473;28;20054;-66
2024/02/26 02:29:11;;;;;;;16.42;9.07;;;;;;;;;;4990871;28;20062;-48
2024/02/26 02:31:59;;;;;;;15.33;9.93;;;;;;;;;;4991642;28;20080;-51
2024/02/26 02:34:54;;;;;;;20.30;10.30;;;;;;;;;;4992354;28;20046;-53
2024/02/26 02:37:41;;;;;;;21.25;10.38;;;;;;;;;;4995612;28;20080;-49
2024/02/26 02:40:35;;;;;;;18.27;8.98;;;;;;;;;;4997549;28;20050;-52
2024/02/26 02:43:22;;;;;;;19.00;10.18;;;;;;;;;;4993556;28;20577;-59
2024/02/26 02:46:16;;;;;;;23.58;11.65;;;;;;;;;;4993052;28;20062;-60
2024/02/26 02:49:10;;;;;;;40.67;11.02;;;;;;;;;;4993077;28;20050;-58
2024/02/26 02:52:04;;;;;;;28.50;12.15;;;;;;;;;;4993586;28;20399;-62
2024/02/26 02:54:51;;;;;;;34.72;11.35;;;;;;;;;;4992545;28;20554;-66
2024/02/26 02:57:45;;;;;;;14.55;9.40;;;;;;;;;;4982677;28;20312;-52
2024/02/26 03:00:32;;;;;;;18.40;10.85;;;;;;;;;;4990634;28;20046;-53
2024/02/26 03:03:28;;;;;;;19.45;11.10;;;;;;;;;;4987757;28;20085;-52
2024/02/26 03:06:13;;;;;;;18.33;10.13;;;;;;;;;;4990582;28;20485;-51
2024/02/26 03:09:07;;;;;;;18.83;10.48;;;;;;;;;;4992418;28;20061;-53
2024/02/26 03:11:54;;;;;;;25.52;10.95;;;;;;;;;;4993768;28;20141;-66
2024/02/26 03:14:48;;;;;;;26.98;10.93;;;;;;;;;;4996007;28;20054;-66
2024/02/26 03:17:41;;;;;;;18.35;10.55;;;;;;;;;;4986323;28;20057;-67
2024/02/26 03:20:37;;;;;;;15.88;9.20;;;;;;;;;;4991250;28;20057;-66
2024/02/26 03:23:23;;;;;;;16.48;10.15;;;;;;;;;;4990847;28;20141;-64
2024/02/26 03:26:17;;;;;;;20.58;10.88;;;;;;;;;;4990217;28;20509;-60
2024/02/26 03:29:04;;;;;;;40.80;13.82;;;;;;;;;;4987863;28;20053;-61
2024/02/26 03:31:57;;;;;;;29.63;12.35;;;;;;;;;;4991333;28;20068;-59
2024/02/26 03:34:45;;;;;;;23.55;12.23;;;;;;;;;;4995058;28;20058;-61
2024/02/26 03:37:38;;;;;;;17.42;11.07;;;;;;;;;;4992525;28;20095;-60
2024/02/26 03:40:26;;;;;;;20.50;11.18;;;;;;;;;;4990851;28;20047;-61
2024/02/26 03:43:19;;;;;;;28.25;11.52;;;;;;;;;;4994678;28;20109;-60
2024/02/26 03:46:11;;;;;;;14.73;9.93;;;;;;;;;;4990810;28;20077;-60
2024/02/26 03:49:03;;;;;;;26.23;11.70;;;;;;;;;;4986408;28;20458;-63
2024/02/26 03:51:51;;;;;;;31.50;13.52;;;;;;;;;;4993680;28;20054;-62
2024/02/26 03:54:44;;;;;;;30.92;12.57;;;;;;;;;;4991056;28;20343;-56
2024/02/26 03:57:32;;;;;;;43.85;13.93;;;;;;;;;;4990001;28;20097;-57
2024/02/26 04:00:26;;;;;;;183.82;18.17;;;;;;;;;;4990207;28;20087;-55
2024/02/26 04:03:20;;;;;;;248.13;21.92;;;;;;;;;;4993549;28;20142;-53
2024/02/26 04:06:10;;;;;;;97.55;16.48;;;;;;;;;;4994692;28;20101;-53
2024/02/26 04:09:03;;;;;;;32.15;11.77;;;;;;;;;;4991821;28;20064;-66
2024/02/26 04:11:50;;;;;;;36.47;13.43;;;;;;;;;;4981873;28;20054;-66
2024/02/26 04:14:44;;;;;;;30.77;14.02;;;;;;;;;;4980401;28;20413;-66
2024/02/26 04:17:38;;;;;;;28.73;12.40;;;;;;;;;;4985493;28;20521;-62
2024/02/26 04:20:32;;;;;;;24.88;13.10;;;;;;;;;;4990960;28;20576;-62
2024/02/26 04:23:20;;;;;;;28.92;12.82;;;;;;;;;;4990949;28;20425;-64
2024/02/26 04:26:14;;;;;;;24.80;11.88;;;;;;;;;;4984621;28;20752;-65
2024/02/26 04:29:01;;;;;;;36.95;13.30;;;;;;;;;;4992686;28;20120;-64
2024/02/26 04:31:55;;;;;;;37.97;15.45;;;;;;;;;;4991168;28;20088;-65
2024/02/26 04:34:42;;;;;;;55.25;15.77;;;;;;;;;;4990409;28;20568;-65
2024/02/26 04:37:36;;;;;;;39.15;15.27;;;;;;;;;;4989718;28;20046;-54
2024/02/26 04:40:23;;;;;;;29.90;12.85;;;;;;;;;;4980080;28;20061;-64
2024/02/26 04:43:18;;;;;;;201.93;18.35;;;;;;;;;;4990301;28;20058;-65
2024/02/26 04:46:04;;;;;;;107.22;15.30;;;;;;;;;;4996548;28;20046;-64
2024/02/26 04:48:58;;;;;;;36.10;13.23;;;;;;;;;;4995380;28;20054;-64
2024/02/26 04:51:45;;;;;;;28.25;13.88;;;;;;;;;;4994247;28;20508;-65
2024/02/26 04:54:39;;;;;;;28.63;13.45;;;;;;;;;;4995706;28;20488;-50
2024/02/26 04:57:32;;;;;;;28.58;13.50;;;;;;;;;;4994381;28;20054;-48
2024/02/26 05:00:27;;;;;;;25.73;13.35;;;;;;;;;;4985585;28;20049;-48
2024/02/26 05:03:15;;;;;;;27.38;12.70;;;;;;;;;;4993495;28;20493;-49
2024/02/26 05:06:09;;;;;;;36.45;14.73;;;;;;;;;;4992274;28;20137;-60
2024/02/26 05:08:56;;;;;;;29.45;13.98;;;;;;;;;;4995428;28;20438;-55
2024/02/26 05:11:50;;;;;;;34.72;14.95;;;;;;;;;;4993514;28;20046;-48
2024/02/26 05:14:37;;;;;;;37.72;13.30;;;;;;;;;;4990943;28;20054;-53
2024/02/26 05:17:37;;;;;;;41.70;15.32;;;;;;;;;;4977754;28;20053;-52
2024/02/26 05:20:35;;;;;;;43.25;15.90;;;;;;;;;;4994497;28;20050;-50
2024/02/26 05:23:25;;;;;;;41.65;15.00;;;;;;;;;;4993602;28;20053;-59
2024/02/26 05:26:12;;;;;;;39.85;14.93;;;;;;;;;;4994117;28;20046;-62
2024/02/26 05:29:07;;;;;;;57.50;16.33;;;;;;;;;;4990873;28;20047;-63
2024/02/26 05:31:54;;;;;;;41.28;15.63;;;;;;;;;;4989591;28;20566;-62
2024/02/26 05:34:48;;;;;;;236.23;22.27;;;;;;;;;;4991147;28;20101;-63
2024/02/26 05:37:35;;;;;;;286.48;25.08;;;;;;;;;;4995093;28;20704;-62
2024/02/26 05:40:29;;;;;;;366.92;28.77;;;;;;;;;;4992888;28;20576;-63
2024/02/26 05:43:16;;;;;;;282.27;26.33;;;;;;;;;;4993806;28;20054;-49
2024/02/26 05:46:10;;;;;;;317.00;26.60;;;;;;;;;;4990931;28;20062;-60
2024/02/26 05:48:57;;;;;;;235.93;22.55;;;;;;;;;;4992705;28;20111;-61
2024/02/26 05:51:51;;;;;;;184.77;18.13;;;;;;;;;;4993656;28;20141;-60
2024/02/26 05:54:38;;;;;;;246.57;21.48;;;;;;;;;;4991371;28;20522;-61
2024/02/26 05:57:32;;;;;;;247.18;24.27;;;;;;;;;;4968613;28;20053;-62
2024/02/26 06:00:19;;;;;;;298.60;25.50;;;;;;;;;;4990404;28;20061;-62
2024/02/26 06:03:14;;;;;;;381.25;28.40;;;;;;;;;;4998419;28;20050;-66
2024/02/26 06:06:01;;;;;;;115.03;17.88;;;;;;;;;;4998493;28;20138;-66
2024/02/26 06:08:56;;;;;;;172.80;20.08;;;;;;;;;;4995164;28;20096;-66
2024/02/26 06:11:43;;;;;;;132.85;19.98;;;;;;;;;;4996531;28;20116;-66
2024/02/26 06:14:37;;;;;;;116.47;20.55;;;;;;;;;;4992682;28;20049;-66
2024/02/26 06:17:30;;;;;;;183.13;21.70;;;;;;;;;;4992081;28;20554;-66
2024/02/26 06:20:31;;;;;;;132.77;21.63;;;;;;;;;;4995270;28;20061;-52
2024/02/26 06:23:19;;;;;;;297.48;27.27;;;;;;;;;;4992313;28;20050;-61
2024/02/26 06:26:13;;;;;;;146.38;22.20;;;;;;;;;;4985474;28;20068;-62
2024/02/26 06:29:00;;;;;;;145.88;21.60;;;;;;;;;;4997037;28;20791;-62
2024/02/26 06:31:54;;;;;;;201.30;24.10;;;;;;;;;;4994735;28;20052;-62
2024/02/26 06:34:41;;;;;;;274.45;27.38;;;;;;;;;;4995974;28;20057;-62
2024/02/26 06:37:36;;;;;;;185.10;25.40;;;;;;;;;;4994080;28;20054;-64
2024/02/26 06:40:22;;;;;;;76.38;19.60;;;;;;;;;;4994023;28;20476;-62
2024/02/26 06:43:16;;;;;;;81.57;19.58;;;;;;;;;;4994892;28;20575;-62
2024/02/26 06:46:03;;;;;;;64.35;18.25;;;;;;;;;;4991183;28;20364;-62
2024/02/26 06:48:57;;;;;;;98.13;22.90;;;;;;;;;;4996056;28;20061;-62
2024/02/26 06:51:44;;;;;;;73.47;20.33;;;;;;;;;;4991517;28;20144;-62
2024/02/26 06:54:38;;;;;;;129.93;22.52;;;;;;;;;;4995801;28;20050;-63
2024/02/26 06:57:25;;;;;;;131.23;25.63;;;;;;;;;;4994221;28;20038;-57
2024/02/26 07:00:19;;;;;;;65.57;21.52;;;;;;;;;;4990559;28;20117;-57
2024/02/26 07:03:13;;;;;;;71.63;22.02;;;;;;;;;;4995454;28;20054;-57
2024/02/26 07:06:07;;;;;;;97.63;24.60;;;;;;;;;;4992757;28;20407;-53
2024/02/26 07:08:54;;;;;;;67.28;20.77;;;;;;;;;;4993342;28;20082;-55
2024/02/26 07:11:48;;;;;;;89.20;22.65;;;;;;;;;;4990643;28;20525;-53
2024/02/26 07:14:37;;;;;;;65.63;20.63;;;;;;;;;;4991856;28;20054;-61
2024/02/26 07:17:36;;;;;;;58.50;20.48;;;;;;;;;;4993390;28;21923;-57
2024/02/26 07:20:24;;;;;;;85.25;22.17;;;;;;;;;;4997858;28;20133;-52
2024/02/26 07:23:17;;;;;;;63.72;19.73;;;;;;;;;;4996088;28;20560;-51
2024/02/26 07:26:04;;;;;;;100.57;24.27;;;;;;;;;;4992019;28;20103;-53
2024/02/26 07:28:58;;;;;;;89.13;22.67;;;;;;;;;;4997865;28;20437;-53
2024/02/26 07:31:45;;;;;;;81.32;21.52;;;;;;;;;;4991935;28;20549;-62
2024/02/26 07:34:41;;;;;;;190.02;26.65;;;;;;;;;;4993132;28;20077;-62
2024/02/26 07:37:26;;;;;;;340.80;32.08;;;;;;;;;;4991891;28;20505;-62
2024/02/26 07:40:20;;;;;;;109.97;22.13;;;;;;;;;;4994997;28;20065;-62
2024/02/26 07:43:25;;;;;;;109.70;22.70;;;;;;;;;;4986391;28;20124;-62
2024/02/26 07:46:19;;;;;;;76.25;21.23;;;;;;;;;;4991455;28;20058;-62
2024/02/26 07:49:12;;;;;;;169.27;26.60;;;;;;;;;;4991936;28;20058;-62
2024/02/26 07:52:07;;;;;;;405.08;34.63;;;;;;;;;;4996523;28;20049;-62
2024/02/26 07:54:54;;;;;;;241.63;25.50;;;;;;;;;;4989749;28;20053;-63
2024/02/26 07:57:48;;;;;;;325.05;30.15;;;;;;;;;;4996481;28;20497;-64
2024/02/26 08:00:36;;;;;;;298.63;29.50;;;;;;;;;;4993145;28;22045;-64
2024/02/26 08:03:30;;;;;;;294.58;27.88;;;;;;;;;;4993189;28;20058;-64
2024/02/26 08:06:17;;;;;;;310.92;29.92;;;;;;;;;;4997579;28;20545;-64
2024/02/26 08:09:12;;;;;;;287.30;28.45;;;;;;;;;;4999198;28;20077;-60
2024/02/26 08:11:58;;;;;;;241.25;27.70;;;;;;;;;;4997827;28;20066;-64
2024/02/26 08:14:52;;;;;;;131.82;23.10;;;;;;;;;;4996803;28;20543;-64
2024/02/26 08:17:47;;;;;;;337.45;30.48;;;;;;;;;;4998257;28;20566;-65
2024/02/26 08:20:39;;;;;;;475.17;37.60;;;;;;;;;;5003069;28;20448;-65
2024/02/26 08:23:26;;;;;;;308.65;29.95;;;;;;;;;;4997998;28;20192;-65
2024/02/26 08:26:22;;;;;;;386.35;35.67;;;;;;;;;;4997795;28;20065;-51
2024/02/26 08:29:07;;;;;;;283.65;31.17;;;;;;;;;;4997404;28;20062;-64
2024/02/26 08:32:01;;;;;;;205.35;24.48;;;;;;;;;;5000955;28;20053;-62
2024/02/26 08:34:48;;;;;;;178.80;27.65;;;;;;;;;;4997377;28;20465;-62
2024/02/26 08:37:45;;;;;;;215.73;26.75;;;;;;;;;;4997918;28;20212;-62
2024/02/26 08:40:31;;;;;;;94.90;20.13;;;;;;;;;;4997463;28;20058;-62
2024/02/26 08:43:25;;;;;;;143.73;22.70;;;;;;;;;;4996721;28;20100;-62
2024/02/26 08:46:13;;;;;;;54.33;19.10;;;;;;;;;;4995403;28;20066;-64
2024/02/26 08:49:06;;;;;;;74.25;19.55;;;;;;;;;;5001410;28;20565;-62
2024/02/26 08:52:01;;;;;;;90.05;20.67;;;;;;;;;;5001383;28;20046;-62
2024/02/26 08:54:48;;;;;;;43.67;17.60;;;;;;;;;;4997012;28;20073;-62
2024/02/26 08:57:42;;;;;;;53.95;17.98;;;;;;;;;;4995936;28;20047;-62
2024/02/26 09:00:35;;;;;;;38.63;17.80;;;;;;;;;;5000772;28;20056;-62
2024/02/26 09:03:23;;;;;;;45.85;17.77;;;;;;;;;;4996505;28;20062;-48
2024/02/26 09:06:17;;;;;;;67.70;17.23;;;;;;;;;;5000103;28;20054;-60
2024/02/26 09:09:04;;;;;;;101.93;19.65;;;;;;;;;;4997593;28;23376;-58
2024/02/26 09:11:58;;;;;;;84.18;17.40;;;;;;;;;;4997643;28;20061;-60
2024/02/26 09:14:45;;;;;;;71.00;16.23;;;;;;;;;;4999495;28;20074;-59
2024/02/26 09:17:45;;;;;;;82.53;18.15;;;;;;;;;;4996917;28;20061;-59
2024/02/26 09:20:33;;;;;;;141.52;21.23;;;;;;;;;;4999477;28;20054;-60
2024/02/26 09:23:27;;;;;;;77.97;18.10;;;;;;;;;;4997580;28;20053;-60
2024/02/26 09:26:14;;;;;;;257.73;24.70;;;;;;;;;;4997504;28;20515;-66
2024/02/26 09:29:08;;;;;;;36.65;15.98;;;;;;;;;;4998283;28;20084;-66
2024/02/26 09:31:55;;;;;;;69.72;17.27;;;;;;;;;;5000930;28;20496;-66
2024/02/26 09:34:48;;;;;;;62.08;18.83;;;;;;;;;;5000250;28;20108;-66
2024/02/26 09:37:44;;;;;;;74.53;17.80;;;;;;;;;;5000345;28;20112;-66
2024/02/26 09:40:31;;;;;;;62.00;17.85;;;;;;;;;;4999723;28;20150;-62
2024/02/26 09:43:28;;;;;;;46.72;16.27;;;;;;;;;;4997393;28;20581;-62
2024/02/26 09:46:17;;;;;;;28.33;14.35;;;;;;;;;;4998110;28;20567;-62
2024/02/26 09:49:09;;;;;;;27.38;15.43;;;;;;;;;;4993026;28;20055;-62
2024/02/26 09:52:05;;;;;;;32.15;16.00;;;;;;;;;;4992214;28;20058;-62
2024/02/26 09:54:52;;;;;;;25.88;14.73;;;;;;;;;;4997873;28;20045;-62
2024/02/26 09:57:46;;;;;;;26.30;14.30;;;;;;;;;;4991027;28;20080;-62
2024/02/26 10:00:42;;;;;;;21.30;12.00;;;;;;;;;;4998526;28;20145;-62
2024/02/26 10:03:44;;;;;;;29.35;14.70;;;;;;;;;;4995140;28;20057;-60
2024/02/26 10:06:38;;;;;;;33.72;14.27;;;;;;;;;;4996766;28;20058;-60
2024/02/26 10:09:25;;;;;;;29.45;14.93;;;;;;;;;;5000236;28;20093;-59
2024/02/26 10:12:19;;;;;;;30.65;14.63;;;;;;;;;;4995817;28;20065;-60
2024/02/26 10:15:06;;;;;;;26.77;14.57;;;;;;;;;;4996234;28;20056;-59
2024/02/26 10:18:13;;;;;;;36.30;16.27;;;;;;;;;;4995329;28;20471;-55
2024/02/26 10:21:23;;;;;;;25.85;15.02;;;;;;;;;;4993124;28;20061;-47
2024/02/26 10:24:18;;;;;;;24.20;14.45;;;;;;;;;;4997338;28;20053;-53
2024/02/26 10:27:05;;;;;;;27.13;14.73;;;;;;;;;;4993897;28;20878;-49
2024/02/26 10:29:59;;;;;;;22.10;13.20;;;;;;;;;;4994575;28;20050;-49
2024/02/26 10:32:47;;;;;;;29.67;15.13;;;;;;;;;;4995324;28;20064;-52
2024/02/26 10:35:46;;;;;;;26.10;14.45;;;;;;;;;;4994846;28;20050;-65
2024/02/26 10:38:33;;;;;;;21.58;12.20;;;;;;;;;;4992749;28;20058;-60
2024/02/26 10:41:27;;;;;;;22.58;13.00;;;;;;;;;;4998604;28;20183;-59
2024/02/26 10:44:15;;;;;;;20.07;12.23;;;;;;;;;;4993587;28;20493;-58
2024/02/26 10:47:09;;;;;;;22.65;12.68;;;;;;;;;;4998680;28;20391;-61
2024/02/26 10:49:56;;;;;;;21.33;12.88;;;;;;;;;;4991232;28;20050;-58
2024/02/26 10:52:51;;;;;;;22.20;12.02;;;;;;;;;;4996136;28;20057;-60
2024/02/26 10:55:40;;;;;;;19.42;11.90;;;;;;;;;;4995962;28;20790;-62
2024/02/26 10:58:34;;;;;;;18.98;11.90;;;;;;;;;;4993463;28;20527;-65
2024/02/26 11:01:31;;;;;;;21.92;11.05;;;;;;;;;;4995132;28;20058;-66
2024/02/26 11:04:17;;;;;;;20.42;10.77;;;;;;;;;;4994856;28;20058;-65
2024/02/26 11:07:11;;;;;;;18.20;11.73;;;;;;;;;;4994182;28;20151;-66
2024/02/26 11:10:02;;;;;;;22.88;12.93;;;;;;;;;;4997998;28;20062;-65
2024/02/26 11:12:58;;;;;;;19.30;12.35;;;;;;;;;;4995138;28;20140;-54
2024/02/26 11:15:49;;;;;;;17.63;10.60;;;;;;;;;;4997779;28;20050;-66
2024/02/26 11:18:49;;;;;;;17.95;11.80;;;;;;;;;;4981466;28;20204;-65
2024/02/26 11:21:41;;;;;;;17.38;11.68;;;;;;;;;;4989318;28;20069;-65
2024/02/26 11:24:47;;;;;;;23.15;13.43;;;;;;;;;;4992460;28;20065;-65
2024/02/26 11:27:44;;;;;;;21.65;12.88;;;;;;;;;;4990886;28;20052;-65
2024/02/26 11:30:32;;;;;;;22.83;12.63;;;;;;;;;;4990651;28;20576;-59
2024/02/26 11:33:26;;;;;;;20.50;12.65;;;;;;;;;;4993782;28;20046;-60
2024/02/26 11:36:14;;;;;;;22.45;12.80;;;;;;;;;;4990754;28;20152;-57
2024/02/26 11:39:07;;;;;;;22.88;13.32;;;;;;;;;;4992828;28;20056;-53
2024/02/26 11:41:54;;;;;;;18.92;12.50;;;;;;;;;;4988203;28;20054;-55
2024/02/26 11:44:48;;;;;;;21.92;13.70;;;;;;;;;;4991012;28;20042;-56
2024/02/26 11:47:35;;;;;;;19.92;13.07;;;;;;;;;;4990286;28;20054;-52
2024/02/26 11:50:35;;;;;;;22.65;12.52;;;;;;;;;;4980101;28;20061;-58
2024/02/26 11:53:30;;;;;;;19.35;12.50;;;;;;;;;;4991987;28;20153;-65
2024/02/26 11:56:26;;;;;;;17.85;12.43;;;;;;;;;;4991835;28;20054;-66
2024/02/26 11:59:12;;;;;;;18.90;11.80;;;;;;;;;;4992879;28;20309;-65
2024/02/26 12:02:05;;;;;;;18.50;11.13;;;;;;;;;;4990185;28;20058;-66
2024/02/26 12:04:52;;;;;;;19.05;11.27;;;;;;;;;;4995985;28;20141;-65
2024/02/26 12:07:47;;;;;;;17.98;11.38;;;;;;;;;;4986615;28;20056;-63
2024/02/26 12:10:38;;;;;;;21.08;11.40;;;;;;;;;;4995379;28;20133;-65
2024/02/26 12:13:34;;;;;;;16.67;11.48;;;;;;;;;;4993895;28;20105;-65
2024/02/26 12:16:39;;;;;;;19.05;11.48;;;;;;;;;;4990222;28;20101;-63
2024/02/26 12:19:39;;;;;;;16.50;10.55;;;;;;;;;;4980638;28;20042;-64
2024/02/26 12:22:27;;;;;;;15.63;10.25;;;;;;;;;;4997249;28;20165;-66
2024/02/26 12:25:23;;;;;;;18.45;11.40;;;;;;;;;;4997156;28;20077;-63
2024/02/26 12:28:10;;;;;;;23.80;11.45;;;;;;;;;;4995744;28;20159;-63
2024/02/26 12:31:04;;;;;;;16.92;9.45;;;;;;;;;;4995550;28;20592;-58
2024/02/26 12:33:52;;;;;;;17.40;10.38;;;;;;;;;;4994151;28;20132;-60
2024/02/26 12:36:46;;;;;;;15.77;9.40;;;;;;;;;;4998032;28;20520;-59
2024/02/26 12:39:33;;;;;;;15.65;9.70;;;;;;;;;;4994546;28;20053;-60
2024/02/26 12:42:27;;;;;;;13.52;8.82;;;;;;;;;;4996453;28;20058;-60
2024/02/26 12:45:15;;;;;;;14.07;9.35;;;;;;;;;;4981243;28;20115;-62
2024/02/26 12:48:08;;;;;;;14.05;8.85;;;;;;;;;;4996273;28;20057;-55
2024/02/26 12:50:56;;;;;;;13.07;8.65;;;;;;;;;;4991820;28;20417;-57
2024/02/26 12:53:50;;;;;;;13.63;8.57;;;;;;;;;;4996172;28;20081;-58
2024/02/26 12:56:37;;;;;;;15.68;9.05;;;;;;;;;;4990336;28;20592;-58
2024/02/26 12:59:31;;;;;;;13.68;9.10;;;;;;;;;;4994366;28;20137;-58
2024/02/26 13:02:18;;;;;;;12.85;8.52;;;;;;;;;;4991166;28;20058;-63
2024/02/26 13:05:13;;;;;;;13.68;8.27;;;;;;;;;;4997066;28;20141;-57
2024/02/26 13:08:00;;;;;;;12.63;7.75;;;;;;;;;;4998405;28;20050;-46
2024/02/26 13:10:54;;;;;;;14.65;9.27;;;;;;;;;;4983759;28;20411;-52
2024/02/26 13:13:41;;;;;;;16.30;8.90;;;;;;;;;;4993948;28;20078;-50
2024/02/26 13:16:35;;;;;;;15.75;10.10;;;;;;;;;;4983958;28;20054;-46
2024/02/26 13:19:28;;;;;;;14.88;10.13;;;;;;;;;;4998241;28;20785;-47
2024/02/26 13:22:23;;;;;;;14.60;9.70;;;;;;;;;;4992816;28;20050;-64
2024/02/26 13:25:09;;;;;;;14.82;9.70;;;;;;;;;;4993898;28;20069;-58
2024/02/26 13:28:16;;;;;;;13.85;9.70;;;;;;;;;;4996933;28;21668;-58
2024/02/26 13:31:05;;;;;;;16.08;9.13;;;;;;;;;;4992723;28;20199;-57
2024/02/26 13:33:57;;;;;;;14.40;9.63;;;;;;;;;;4997139;28;20050;-59
2024/02/26 13:36:44;;;;;;;19.30;10.50;;;;;;;;;;4997212;28;20513;-58
2024/02/26 13:39:38;;;;;;;21.35;10.57;;;;;;;;;;4994810;28;20060;-47
2024/02/26 13:42:25;;;;;;;13.88;9.38;;;;;;;;;;4997715;28;20054;-59
2024/02/26 13:45:19;;;;;;;18.02;11.35;;;;;;;;;;4995247;28;20046;-57
2024/02/26 13:48:07;;;;;;;21.35;11.25;;;;;;;;;;4994378;28;20058;-57
2024/02/26 13:51:01;;;;;;;17.33;10.90;;;;;;;;;;4993205;28;20056;-57
2024/02/26 13:53:48;;;;;;;20.42;11.65;;;;;;;;;;4993741;28;20093;-59
2024/02/26 13:56:42;;;;;;;20.90;12.93;;;;;;;;;;4996850;28;20456;-57
2024/02/26 13:59:29;;;;;;;19.48;11.50;;;;;;;;;;4997428;28;20129;-61
2024/02/26 14:02:23;;;;;;;30.40;13.57;;;;;;;;;;4996714;28;20058;-64
2024/02/26 14:05:10;;;;;;;29.73;14.35;;;;;;;;;;4998242;28;20477;-65
2024/02/26 14:08:04;;;;;;;25.95;13.25;;;;;;;;;;4994110;28;20085;-64
2024/02/26 14:10:51;;;;;;;24.27;13.77;;;;;;;;;;4996182;28;20074;-65
2024/02/26 14:13:46;;;;;;;28.55;15.18;;;;;;;;;;4994396;28;20377;-64
2024/02/26 14:16:32;;;;;;;33.35;14.85;;;;;;;;;;4992245;28;20050;-64
2024/02/26 14:19:33;;;;;;;30.25;14.35;;;;;;;;;;4994843;28;20516;-63
2024/02/26 14:22:20;;;;;;;30.67;16.80;;;;;;;;;;4995374;28;20140;-63
2024/02/26 14:25:14;;;;;;;36.30;17.67;;;;;;;;;;4993941;28;20085;-64
2024/02/26 14:28:01;;;;;;;35.92;18.08;;;;;;;;;;4997186;28;20280;-63
2024/02/26 14:31:04;;;;;;;32.17;16.58;;;;;;;;;;4994627;28;20510;-63
2024/02/26 14:33:52;;;;;;;31.80;16.40;;;;;;;;;;4993630;28;20534;-63
2024/02/26 14:36:43;;;;;;;34.50;17.17;;;;;;;;;;4995268;28;20062;-60
2024/02/26 14:39:31;;;;;;;33.40;16.25;;;;;;;;;;4993833;28;20049;-61
2024/02/26 14:42:24;;;;;;;42.97;17.92;;;;;;;;;;4994656;28;20068;-59
2024/02/26 14:45:11;;;;;;;41.10;17.38;;;;;;;;;;4993054;28;20050;-60
2024/02/26 14:48:05;;;;;;;39.67;18.02;;;;;;;;;;4997020;28;20062;-60
2024/02/26 14:50:52;;;;;;;41.90;17.95;;;;;;;;;;4991142;28;20088;-59
2024/02/26 14:53:47;;;;;;;33.20;17.58;;;;;;;;;;4993509;28;20157;-63
2024/02/26 14:56:34;;;;;;;43.97;18.10;;;;;;;;;;4997804;28;20421;-60
2024/02/26 14:59:28;;;;;;;38.88;17.40;;;;;;;;;;4996578;28;20046;-58
2024/02/26 15:02:15;;;;;;;46.75;17.10;;;;;;;;;;4996315;28;20096;-61
2024/02/26 15:05:11;;;;;;;49.50;17.63;;;;;;;;;;4995714;28;20613;-62
2024/02/26 15:07:56;;;;;;;41.28;18.35;;;;;;;;;;4995441;28;20057;-56
2024/02/26 15:10:50;;;;;;;42.17;18.15;;;;;;;;;;4993176;28;20069;-65
2024/02/26 15:13:37;;;;;;;38.55;17.13;;;;;;;;;;4989309;28;20061;-64
2024/02/26 15:16:31;;;;;;;38.38;17.02;;;;;;;;;;4998184;28;20513;-59
2024/02/26 15:19:24;;;;;;;35.70;16.80;;;;;;;;;;4995680;28;20085;-60
2024/02/26 15:22:18;;;;;;;40.17;17.58;;;;;;;;;;4995453;28;20148;-63
2024/02/26 15:25:05;;;;;;;37.03;17.45;;;;;;;;;;4998630;28;20047;-60
2024/02/26 15:27:59;;;;;;;37.72;17.08;;;;;;;;;;4995192;28;20064;-59
2024/02/26 15:30:46;;;;;;;34.78;15.95;;;;;;;;;;4996247;28;20120;-62
2024/02/26 15:33:41;;;;;;;37.83;16.58;;;;;;;;;;4997442;28;20062;-48
2024/02/26 15:36:29;;;;;;;35.53;16.77;;;;;;;;;;4996505;28;20081;-49
2024/02/26 15:39:23;;;;;;;44.53;18.17;;;;;;;;;;4994266;28;20054;-54
2024/02/26 15:42:10;;;;;;;40.97;17.13;;;;;;;;;;4996788;28;20069;-51
2024/02/26 15:45:04;;;;;;;41.80;16.33;;;;;;;;;;4995138;28;20054;-52
2024/02/26 15:47:52;;;;;;;36.38;15.38;;;;;;;;;;4996700;28;20053;-65
2024/02/26 15:50:47;;;;;;;42.20;16.98;;;;;;;;;;4990807;28;20129;-51
2024/02/26 15:53:33;;;;;;;42.45;16.63;;;;;;;;;;4992249;28;20054;-51
2024/02/26 15:56:27;;;;;;;35.75;16.92;;;;;;;;;;4995677;28;20060;-47
2024/02/26 15:59:21;;;;;;;51.33;18.13;;;;;;;;;;4994893;28;20051;-49
2024/02/26 16:02:15;;;;;;;39.35;15.85;;;;;;;;;;4997147;28;20058;-49
2024/02/26 16:05:11;;;;;;;44.22;17.42;;;;;;;;;;4997898;28;20061;-54
2024/02/26 16:07:58;;;;;;;46.22;16.75;;;;;;;;;;4993401;28;20046;-56
2024/02/26 16:10:52;;;;;;;44.45;17.98;;;;;;;;;;4997677;28;20062;-59
2024/02/26 16:13:39;;;;;;;48.50;18.02;;;;;;;;;;4997818;28;20046;-60
2024/02/26 16:16:34;;;;;;;49.70;18.50;;;;;;;;;;4992478;28;20666;-58
2024/02/26 16:19:29;;;;;;;50.92;18.15;;;;;;;;;;4990564;28;20077;-57
2024/02/26 16:22:24;;;;;;;53.35;18.67;;;;;;;;;;4996135;28;20056;-59
2024/02/26 16:25:10;;;;;;;45.40;17.80;;;;;;;;;;4995871;28;20616;-62
2024/02/26 16:28:04;;;;;;;54.20;20.00;;;;;;;;;;4996248;28;20050;-56
2024/02/26 16:30:58;;;;;;;55.88;20.15;;;;;;;;;;4992837;28;20050;-57
2024/02/26 16:33:45;;;;;;;62.92;20.40;;;;;;;;;;4991202;28;20674;-55
2024/02/26 16:36:39;;;;;;;67.25;20.20;;;;;;;;;;4993483;28;20156;-58